sensor_id;sensor_type;location;lat;lon;timestamp;temperature;humidity
418;DHT22;49;48.530;9.200;2022-08-01T00:01:34;26.50;25.70
418;DHT22;49;48.530;9.200;2022-08-01T00:04:01;26.60;26.10
418;DHT22;49;48.530;9.200;2022-08-01T00:06:28;26.70;25.90
418;DHT22;49;48.530;9.200;2022-08-01T00:08:55;26.80;26.30
418;DHT22;49;48.530;9.200;2022-08-01T00:11:23;26.90;25.40
418;DHT22;49;48.530;9.200;2022-08-01T00:13:50;26.80;25.80
418;DHT22;49;48.530;9.200;2022-08-01T00:16:17;26.80;25.80
418;DHT22;49;48.530;9.200;2022-08-01T00:18:44;26.70;26.90
418;DHT22;49;48.530;9.200;2022-08-01T00:21:11;26.70;26.20
418;DHT22;49;48.530;9.200;2022-08-01T00:23:38;26.70;24.30
418;DHT22;49;48.530;9.200;2022-08-01T00:26:05;26.30;24.60
418;DHT22;49;48.530;9.200;2022-08-01T00:28:33;25.90;25.00
418;DHT22;49;48.530;9.200;2022-08-01T00:31:00;25.80;25.80
418;DHT22;49;48.530;9.200;2022-08-01T00:33:27;26.00;27.60
418;DHT22;49;48.530;9.200;2022-08-01T00:35:55;26.10;26.30
418;DHT22;49;48.530;9.200;2022-08-01T00:38:22;26.00;26.70
418;DHT22;49;48.530;9.200;2022-08-01T00:40:49;25.90;25.50
418;DHT22;49;48.530;9.200;2022-08-01T00:43:16;25.90;27.80
418;DHT22;49;48.530;9.200;2022-08-01T00:45:45;25.80;25.80
418;DHT22;49;48.530;9.200;2022-08-01T00:48:12;25.60;26.40
418;DHT22;49;48.530;9.200;2022-08-01T00:50:39;25.60;26.10
418;DHT22;49;48.530;9.200;2022-08-01T00:53:06;25.70;26.80
418;DHT22;49;48.530;9.200;2022-08-01T00:55:33;25.90;26.40
418;DHT22;49;48.530;9.200;2022-08-01T00:58:00;25.80;27.10
418;DHT22;49;48.530;9.200;2022-08-01T01:00:27;25.80;26.10
418;DHT22;49;48.530;9.200;2022-08-01T01:02:55;25.70;27.30
418;DHT22;49;48.530;9.200;2022-08-01T01:05:22;25.70;27.00
418;DHT22;49;48.530;9.200;2022-08-01T01:07:56;25.60;26.20
418;DHT22;49;48.530;9.200;2022-08-01T01:10:34;25.50;27.80
418;DHT22;49;48.530;9.200;2022-08-01T01:13:06;25.60;26.30
418;DHT22;49;48.530;9.200;2022-08-01T01:15:40;25.60;27.80
418;DHT22;49;48.530;9.200;2022-08-01T01:18:11;25.50;26.40
418;DHT22;49;48.530;9.200;2022-08-01T01:20:41;25.60;27.20
418;DHT22;49;48.530;9.200;2022-08-01T01:23:30;25.70;28.70
418;DHT22;49;48.530;9.200;2022-08-01T01:26:21;25.80;28.30
418;DHT22;49;48.530;9.200;2022-08-01T01:29:06;25.70;26.20
418;DHT22;49;48.530;9.200;2022-08-01T01:31:41;25.80;28.00
418;DHT22;49;48.530;9.200;2022-08-01T01:34:12;25.70;27.00
418;DHT22;49;48.530;9.200;2022-08-01T01:36:40;25.60;27.80
418;DHT22;49;48.530;9.200;2022-08-01T01:39:08;25.70;27.90
418;DHT22;49;48.530;9.200;2022-08-01T01:41:36;25.80;28.40
418;DHT22;49;48.530;9.200;2022-08-01T01:44:06;25.90;27.60
418;DHT22;49;48.530;9.200;2022-08-01T01:46:35;25.90;27.80
418;DHT22;49;48.530;9.200;2022-08-01T01:49:03;25.90;28.00
418;DHT22;49;48.530;9.200;2022-08-01T01:51:31;25.90;27.80
418;DHT22;49;48.530;9.200;2022-08-01T01:53:59;25.80;26.80
418;DHT22;49;48.530;9.200;2022-08-01T01:56:28;25.50;27.10
418;DHT22;49;48.530;9.200;2022-08-01T01:58:59;25.40;28.30
418;DHT22;49;48.530;9.200;2022-08-01T02:01:31;25.30;27.70
418;DHT22;49;48.530;9.200;2022-08-01T02:04:00;25.20;28.20
418;DHT22;49;48.530;9.200;2022-08-01T02:06:29;25.10;28.40
418;DHT22;49;48.530;9.200;2022-08-01T02:08:57;25.00;28.00
418;DHT22;49;48.530;9.200;2022-08-01T02:11:25;25.00;28.20
418;DHT22;49;48.530;9.200;2022-08-01T02:13:55;25.00;28.00
418;DHT22;49;48.530;9.200;2022-08-01T02:16:26;25.10;28.40
418;DHT22;49;48.530;9.200;2022-08-01T02:18:55;25.10;28.30
418;DHT22;49;48.530;9.200;2022-08-01T02:21:27;25.00;27.80
418;DHT22;49;48.530;9.200;2022-08-01T02:23:55;25.20;28.60
418;DHT22;49;48.530;9.200;2022-08-01T02:26:27;25.20;27.60
418;DHT22;49;48.530;9.200;2022-08-01T02:28:58;25.20;27.70
418;DHT22;49;48.530;9.200;2022-08-01T02:31:26;25.00;27.50
418;DHT22;49;48.530;9.200;2022-08-01T02:34:00;24.70;29.20
418;DHT22;49;48.530;9.200;2022-08-01T02:36:29;24.80;29.90
418;DHT22;49;48.530;9.200;2022-08-01T02:38:57;24.90;30.00
418;DHT22;49;48.530;9.200;2022-08-01T02:41:26;24.90;28.70
418;DHT22;49;48.530;9.200;2022-08-01T02:43:59;25.10;29.70
418;DHT22;49;48.530;9.200;2022-08-01T02:46:31;25.10;28.20
418;DHT22;49;48.530;9.200;2022-08-01T02:49:03;25.00;29.00
418;DHT22;49;48.530;9.200;2022-08-01T02:51:32;24.90;28.80
418;DHT22;49;48.530;9.200;2022-08-01T02:54:02;24.90;29.50
418;DHT22;49;48.530;9.200;2022-08-01T02:56:30;24.70;28.30
418;DHT22;49;48.530;9.200;2022-08-01T02:59:04;24.80;28.50
418;DHT22;49;48.530;9.200;2022-08-01T03:01:32;24.80;29.40
418;DHT22;49;48.530;9.200;2022-08-01T03:04:03;24.80;29.00
418;DHT22;49;48.530;9.200;2022-08-01T03:06:31;24.60;29.10
418;DHT22;49;48.530;9.200;2022-08-01T03:09:00;24.30;29.60
418;DHT22;49;48.530;9.200;2022-08-01T03:11:29;24.30;29.70
418;DHT22;49;48.530;9.200;2022-08-01T03:13:59;24.30;29.60
418;DHT22;49;48.530;9.200;2022-08-01T03:16:28;24.60;29.70
418;DHT22;49;48.530;9.200;2022-08-01T03:18:58;24.60;29.40
418;DHT22;49;48.530;9.200;2022-08-01T03:21:29;24.40;29.70
418;DHT22;49;48.530;9.200;2022-08-01T03:24:00;24.50;29.10
418;DHT22;49;48.530;9.200;2022-08-01T03:26:30;24.70;29.20
418;DHT22;49;48.530;9.200;2022-08-01T03:29:05;24.90;30.60
418;DHT22;49;48.530;9.200;2022-08-01T03:31:34;24.90;29.40
418;DHT22;49;48.530;9.200;2022-08-01T03:34:02;25.10;29.90
418;DHT22;49;48.530;9.200;2022-08-01T03:36:31;25.10;30.10
418;DHT22;49;48.530;9.200;2022-08-01T03:39:02;25.00;28.30
418;DHT22;49;48.530;9.200;2022-08-01T03:41:33;24.80;28.40
418;DHT22;49;48.530;9.200;2022-08-01T03:44:07;24.70;31.00
418;DHT22;49;48.530;9.200;2022-08-01T03:46:39;24.70;29.50
418;DHT22;49;48.530;9.200;2022-08-01T03:49:11;24.60;29.60
418;DHT22;49;48.530;9.200;2022-08-01T03:51:42;24.70;30.40
418;DHT22;49;48.530;9.200;2022-08-01T03:54:10;24.70;28.60
418;DHT22;49;48.530;9.200;2022-08-01T03:56:38;24.60;29.30
418;DHT22;49;48.530;9.200;2022-08-01T03:59:06;24.40;29.70
418;DHT22;49;48.530;9.200;2022-08-01T04:01:33;24.30;31.50
418;DHT22;49;48.530;9.200;2022-08-01T04:04:01;24.50;30.00
418;DHT22;49;48.530;9.200;2022-08-01T04:06:30;24.70;31.00
418;DHT22;49;48.530;9.200;2022-08-01T04:08:59;24.90;30.80
418;DHT22;49;48.530;9.200;2022-08-01T04:11:27;25.00;30.30
418;DHT22;49;48.530;9.200;2022-08-01T04:13:55;25.00;29.50
418;DHT22;49;48.530;9.200;2022-08-01T04:16:23;25.00;29.00
418;DHT22;49;48.530;9.200;2022-08-01T04:18:50;25.00;28.50
418;DHT22;49;48.530;9.200;2022-08-01T04:21:20;24.40;29.70
418;DHT22;49;48.530;9.200;2022-08-01T04:23:49;24.60;31.00
418;DHT22;49;48.530;9.200;2022-08-01T04:26:20;24.50;29.30
418;DHT22;49;48.530;9.200;2022-08-01T04:28:49;24.40;30.20
418;DHT22;49;48.530;9.200;2022-08-01T04:31:20;24.20;29.80
418;DHT22;49;48.530;9.200;2022-08-01T04:33:53;24.10;30.60
418;DHT22;49;48.530;9.200;2022-08-01T04:36:23;24.00;31.50
418;DHT22;49;48.530;9.200;2022-08-01T04:38:54;24.10;30.10
418;DHT22;49;48.530;9.200;2022-08-01T04:41:23;24.10;30.10
418;DHT22;49;48.530;9.200;2022-08-01T04:43:50;24.30;31.60
418;DHT22;49;48.530;9.200;2022-08-01T04:46:18;24.30;30.80
418;DHT22;49;48.530;9.200;2022-08-01T04:48:46;24.40;30.90
418;DHT22;49;48.530;9.200;2022-08-01T04:51:14;24.40;31.40
418;DHT22;49;48.530;9.200;2022-08-01T04:53:42;24.50;31.40
418;DHT22;49;48.530;9.200;2022-08-01T04:56:08;24.80;31.10
418;DHT22;49;48.530;9.200;2022-08-01T04:58:40;25.10;29.80
418;DHT22;49;48.530;9.200;2022-08-01T05:01:07;24.80;29.10
418;DHT22;49;48.530;9.200;2022-08-01T05:03:34;24.40;29.70
418;DHT22;49;48.530;9.200;2022-08-01T05:06:01;24.30;30.10
418;DHT22;49;48.530;9.200;2022-08-01T05:08:28;24.50;30.40
418;DHT22;49;48.530;9.200;2022-08-01T05:10:55;24.60;31.40
418;DHT22;49;48.530;9.200;2022-08-01T05:13:22;24.90;31.10
418;DHT22;49;48.530;9.200;2022-08-01T05:15:50;25.10;29.60
418;DHT22;49;48.530;9.200;2022-08-01T05:18:17;25.20;29.80
418;DHT22;49;48.530;9.200;2022-08-01T05:20:44;25.00;29.40
418;DHT22;49;48.530;9.200;2022-08-01T05:23:12;25.20;29.70
418;DHT22;49;48.530;9.200;2022-08-01T05:25:39;25.30;29.30
418;DHT22;49;48.530;9.200;2022-08-01T05:28:06;25.40;29.60
418;DHT22;49;48.530;9.200;2022-08-01T05:30:33;25.60;28.30
418;DHT22;49;48.530;9.200;2022-08-01T05:33:01;25.40;28.70
418;DHT22;49;48.530;9.200;2022-08-01T05:35:28;25.10;29.00
418;DHT22;49;48.530;9.200;2022-08-01T05:37:55;25.00;29.70
418;DHT22;49;48.530;9.200;2022-08-01T05:40:21;25.10;29.80
418;DHT22;49;48.530;9.200;2022-08-01T05:42:48;25.60;28.90
418;DHT22;49;48.530;9.200;2022-08-01T05:45:15;26.30;28.20
418;DHT22;49;48.530;9.200;2022-08-01T05:47:42;27.10;26.40
418;DHT22;49;48.530;9.200;2022-08-01T05:50:10;27.70;24.90
418;DHT22;49;48.530;9.200;2022-08-01T05:52:37;28.10;24.10
418;DHT22;49;48.530;9.200;2022-08-01T05:55:05;28.00;24.00
418;DHT22;49;48.530;9.200;2022-08-01T05:57:32;28.20;24.70
418;DHT22;49;48.530;9.200;2022-08-01T05:59:59;28.60;24.00
418;DHT22;49;48.530;9.200;2022-08-01T06:02:26;28.70;23.50
418;DHT22;49;48.530;9.200;2022-08-01T06:04:54;28.30;24.30
418;DHT22;49;48.530;9.200;2022-08-01T06:07:22;28.30;25.40
418;DHT22;49;48.530;9.200;2022-08-01T06:09:49;28.90;25.30
418;DHT22;49;48.530;9.200;2022-08-01T06:12:15;29.60;22.60
418;DHT22;49;48.530;9.200;2022-08-01T06:14:42;30.00;21.60
418;DHT22;49;48.530;9.200;2022-08-01T06:17:09;29.90;21.80
418;DHT22;49;48.530;9.200;2022-08-01T06:19:36;29.50;22.20
418;DHT22;49;48.530;9.200;2022-08-01T06:22:03;29.00;22.80
418;DHT22;49;48.530;9.200;2022-08-01T06:24:31;29.00;23.60
418;DHT22;49;48.530;9.200;2022-08-01T06:26:58;29.20;23.20
418;DHT22;49;48.530;9.200;2022-08-01T06:29:25;29.00;22.70
418;DHT22;49;48.530;9.200;2022-08-01T06:31:52;29.30;22.80
418;DHT22;49;48.530;9.200;2022-08-01T06:34:19;29.20;22.50
418;DHT22;49;48.530;9.200;2022-08-01T06:36:47;29.30;22.80
418;DHT22;49;48.530;9.200;2022-08-01T06:39:13;29.60;22.30
418;DHT22;49;48.530;9.200;2022-08-01T06:41:42;30.10;21.40
418;DHT22;49;48.530;9.200;2022-08-01T06:44:11;30.20;21.40
418;DHT22;49;48.530;9.200;2022-08-01T06:46:38;29.90;21.80
418;DHT22;49;48.530;9.200;2022-08-01T06:49:05;29.30;22.90
418;DHT22;49;48.530;9.200;2022-08-01T06:51:32;29.70;23.00
418;DHT22;49;48.530;9.200;2022-08-01T06:53:59;30.20;22.90
418;DHT22;49;48.530;9.200;2022-08-01T06:56:25;30.80;21.90
418;DHT22;49;48.530;9.200;2022-08-01T06:58:54;31.20;20.60
418;DHT22;49;48.530;9.200;2022-08-01T07:01:24;31.50;20.10
418;DHT22;49;48.530;9.200;2022-08-01T07:03:51;31.30;19.90
418;DHT22;49;48.530;9.200;2022-08-01T07:06:18;31.30;20.30
418;DHT22;49;48.530;9.200;2022-08-01T07:08:45;31.40;20.10
418;DHT22;49;48.530;9.200;2022-08-01T07:11:12;31.40;19.80
418;DHT22;49;48.530;9.200;2022-08-01T07:13:38;31.60;19.70
418;DHT22;49;48.530;9.200;2022-08-01T07:16:07;31.80;20.50
418;DHT22;49;48.530;9.200;2022-08-01T07:18:33;32.70;19.50
418;DHT22;49;48.530;9.200;2022-08-01T07:21:00;34.10;18.50
418;DHT22;49;48.530;9.200;2022-08-01T07:23:27;35.50;15.90
418;DHT22;49;48.530;9.200;2022-08-01T07:25:54;36.00;14.90
418;DHT22;49;48.530;9.200;2022-08-01T07:28:21;36.40;14.50
418;DHT22;49;48.530;9.200;2022-08-01T07:30:48;37.30;13.80
418;DHT22;49;48.530;9.200;2022-08-01T07:33:16;37.70;13.30
418;DHT22;49;48.530;9.200;2022-08-01T07:35:43;38.20;13.10
418;DHT22;49;48.530;9.200;2022-08-01T07:38:09;38.90;11.70
418;DHT22;49;48.530;9.200;2022-08-01T07:40:36;39.20;10.90
418;DHT22;49;48.530;9.200;2022-08-01T07:43:03;39.10;11.30
418;DHT22;49;48.530;9.200;2022-08-01T07:45:30;39.20;10.70
418;DHT22;49;48.530;9.200;2022-08-01T07:48:02;39.20;11.10
418;DHT22;49;48.530;9.200;2022-08-01T07:50:30;39.50;10.40
418;DHT22;49;48.530;9.200;2022-08-01T07:52:57;39.60;10.40
418;DHT22;49;48.530;9.200;2022-08-01T07:55:24;38.80;11.10
418;DHT22;49;48.530;9.200;2022-08-01T07:57:51;39.30;11.10
418;DHT22;49;48.530;9.200;2022-08-01T08:00:18;40.20;10.70
418;DHT22;49;48.530;9.200;2022-08-01T08:02:45;40.30;10.60
418;DHT22;49;48.530;9.200;2022-08-01T08:05:12;40.50;9.70
418;DHT22;49;48.530;9.200;2022-08-01T08:07:41;40.70;9.80
418;DHT22;49;48.530;9.200;2022-08-01T08:10:08;40.30;10.90
418;DHT22;49;48.530;9.200;2022-08-01T08:12:35;39.90;10.10
418;DHT22;49;48.530;9.200;2022-08-01T08:15:02;40.40;10.10
418;DHT22;49;48.530;9.200;2022-08-01T08:17:31;40.50;9.40
418;DHT22;49;48.530;9.200;2022-08-01T08:19:59;40.50;9.20
418;DHT22;49;48.530;9.200;2022-08-01T08:22:26;40.40;9.00
418;DHT22;49;48.530;9.200;2022-08-01T08:24:54;40.40;9.30
418;DHT22;49;48.530;9.200;2022-08-01T08:27:21;40.20;9.20
418;DHT22;49;48.530;9.200;2022-08-01T08:29:48;39.60;10.30
418;DHT22;49;48.530;9.200;2022-08-01T08:32:15;39.40;10.30
418;DHT22;49;48.530;9.200;2022-08-01T08:34:41;39.50;10.10
418;DHT22;49;48.530;9.200;2022-08-01T08:37:08;38.60;10.30
418;DHT22;49;48.530;9.200;2022-08-01T08:39:35;38.30;11.30
418;DHT22;49;48.530;9.200;2022-08-01T08:42:06;38.00;11.30
418;DHT22;49;48.530;9.200;2022-08-01T08:44:33;37.80;11.50
418;DHT22;49;48.530;9.200;2022-08-01T08:47:01;38.30;11.00
418;DHT22;49;48.530;9.200;2022-08-01T08:49:31;37.90;11.00
418;DHT22;49;48.530;9.200;2022-08-01T08:52:00;37.80;12.10
418;DHT22;49;48.530;9.200;2022-08-01T08:54:28;37.60;12.30
418;DHT22;49;48.530;9.200;2022-08-01T08:56:55;37.30;12.40
418;DHT22;49;48.530;9.200;2022-08-01T08:59:24;37.30;12.50
418;DHT22;49;48.530;9.200;2022-08-01T09:01:52;37.20;12.50
418;DHT22;49;48.530;9.200;2022-08-01T09:04:20;36.40;12.80
418;DHT22;49;48.530;9.200;2022-08-01T09:06:48;36.00;13.50
418;DHT22;49;48.530;9.200;2022-08-01T09:09:15;35.70;13.90
418;DHT22;49;48.530;9.200;2022-08-01T09:11:42;35.80;14.70
418;DHT22;49;48.530;9.200;2022-08-01T09:14:10;36.30;14.00
418;DHT22;49;48.530;9.200;2022-08-01T09:16:41;36.20;13.90
418;DHT22;49;48.530;9.200;2022-08-01T09:19:13;36.60;13.60
418;DHT22;49;48.530;9.200;2022-08-01T09:21:55;36.80;13.00
418;DHT22;49;48.530;9.200;2022-08-01T09:24:25;36.10;13.80
418;DHT22;49;48.530;9.200;2022-08-01T09:26:53;35.50;14.40
418;DHT22;49;48.530;9.200;2022-08-01T09:29:21;35.50;14.10
418;DHT22;49;48.530;9.200;2022-08-01T09:31:50;35.50;14.90
418;DHT22;49;48.530;9.200;2022-08-01T09:34:24;35.50;14.70
418;DHT22;49;48.530;9.200;2022-08-01T09:36:52;35.30;14.40
418;DHT22;49;48.530;9.200;2022-08-01T09:39:22;35.30;14.50
418;DHT22;49;48.530;9.200;2022-08-01T09:41:49;35.10;15.00
418;DHT22;49;48.530;9.200;2022-08-01T09:44:17;34.90;15.20
418;DHT22;49;48.530;9.200;2022-08-01T09:46:52;34.80;16.00
418;DHT22;49;48.530;9.200;2022-08-01T09:49:30;34.80;15.30
418;DHT22;49;48.530;9.200;2022-08-01T09:51:58;34.50;15.90
418;DHT22;49;48.530;9.200;2022-08-01T09:54:30;34.70;15.40
418;DHT22;49;48.530;9.200;2022-08-01T09:57:08;35.00;14.80
418;DHT22;49;48.530;9.200;2022-08-01T09:59:35;35.10;15.40
418;DHT22;49;48.530;9.200;2022-08-01T10:02:04;35.00;14.60
418;DHT22;49;48.530;9.200;2022-08-01T10:04:31;34.80;15.40
418;DHT22;49;48.530;9.200;2022-08-01T10:07:04;34.50;16.20
418;DHT22;49;48.530;9.200;2022-08-01T10:09:33;34.10;16.30
418;DHT22;49;48.530;9.200;2022-08-01T10:12:00;34.50;16.30
418;DHT22;49;48.530;9.200;2022-08-01T10:14:29;34.30;15.70
418;DHT22;49;48.530;9.200;2022-08-01T10:16:58;33.60;16.40
418;DHT22;49;48.530;9.200;2022-08-01T10:19:28;33.20;16.40
418;DHT22;49;48.530;9.200;2022-08-01T10:21:56;33.50;16.70
418;DHT22;49;48.530;9.200;2022-08-01T10:24:26;34.00;16.60
418;DHT22;49;48.530;9.200;2022-08-01T10:26:56;34.10;16.40
418;DHT22;49;48.530;9.200;2022-08-01T10:29:28;34.40;16.00
418;DHT22;49;48.530;9.200;2022-08-01T10:31:57;34.60;15.60
418;DHT22;49;48.530;9.200;2022-08-01T10:34:25;34.60;15.70
418;DHT22;49;48.530;9.200;2022-08-01T10:36:54;34.50;16.10
418;DHT22;49;48.530;9.200;2022-08-01T10:39:22;34.60;15.50
418;DHT22;49;48.530;9.200;2022-08-01T10:41:52;34.70;15.90
418;DHT22;49;48.530;9.200;2022-08-01T10:44:19;34.30;16.20
418;DHT22;49;48.530;9.200;2022-08-01T10:46:49;34.10;15.80
418;DHT22;49;48.530;9.200;2022-08-01T10:49:20;33.90;16.70
418;DHT22;49;48.530;9.200;2022-08-01T10:51:49;33.30;16.70
418;DHT22;49;48.530;9.200;2022-08-01T10:54:17;33.60;17.00
418;DHT22;49;48.530;9.200;2022-08-01T10:56:46;33.70;16.60
418;DHT22;49;48.530;9.200;2022-08-01T10:59:15;33.70;16.50
418;DHT22;49;48.530;9.200;2022-08-01T11:01:56;33.90;16.10
418;DHT22;49;48.530;9.200;2022-08-01T11:04:34;33.90;16.50
418;DHT22;49;48.530;9.200;2022-08-01T11:07:07;33.30;17.00
418;DHT22;49;48.530;9.200;2022-08-01T11:09:43;33.20;17.00
418;DHT22;49;48.530;9.200;2022-08-01T11:12:11;33.00;16.90
418;DHT22;49;48.530;9.200;2022-08-01T11:15:25;33.10;17.60
418;DHT22;49;48.530;9.200;2022-08-01T11:17:53;33.50;16.80
418;DHT22;49;48.530;9.200;2022-08-01T11:20:21;33.60;17.40
418;DHT22;49;48.530;9.200;2022-08-01T11:23:16;33.90;16.60
418;DHT22;49;48.530;9.200;2022-08-01T11:26:13;33.80;16.10
418;DHT22;49;48.530;9.200;2022-08-01T11:28:42;33.50;16.70
418;DHT22;49;48.530;9.200;2022-08-01T11:31:30;33.60;16.80
418;DHT22;49;48.530;9.200;2022-08-01T11:33:58;33.40;16.70
418;DHT22;49;48.530;9.200;2022-08-01T11:36:26;32.80;17.40
418;DHT22;49;48.530;9.200;2022-08-01T11:39:17;32.20;17.80
418;DHT22;49;48.530;9.200;2022-08-01T11:41:48;32.60;17.60
418;DHT22;49;48.530;9.200;2022-08-01T11:44:20;32.80;18.00
418;DHT22;49;48.530;9.200;2022-08-01T11:49:52;32.20;19.20
418;DHT22;49;48.530;9.200;2022-08-01T11:52:33;32.20;19.20
418;DHT22;49;48.530;9.200;2022-08-01T11:55:07;32.50;18.90
418;DHT22;49;48.530;9.200;2022-08-01T11:57:36;32.30;19.30
418;DHT22;49;48.530;9.200;2022-08-01T12:00:09;31.10;21.10
418;DHT22;49;48.530;9.200;2022-08-01T12:02:36;30.80;21.80
418;DHT22;49;48.530;9.200;2022-08-01T12:05:05;30.50;21.90
418;DHT22;49;48.530;9.200;2022-08-01T12:07:36;30.70;21.90
418;DHT22;49;48.530;9.200;2022-08-01T12:10:18;31.30;21.10
418;DHT22;49;48.530;9.200;2022-08-01T12:12:55;31.30;21.20
418;DHT22;49;48.530;9.200;2022-08-01T12:15:23;31.40;20.80
418;DHT22;49;48.530;9.200;2022-08-01T12:17:56;31.20;21.20
418;DHT22;49;48.530;9.200;2022-08-01T12:20:26;31.50;20.30
418;DHT22;49;48.530;9.200;2022-08-01T12:23:01;31.40;20.60
418;DHT22;49;48.530;9.200;2022-08-01T12:25:35;31.60;20.40
418;DHT22;49;48.530;9.200;2022-08-01T12:31:37;31.70;20.20
418;DHT22;49;48.530;9.200;2022-08-01T12:34:28;31.80;20.20
418;DHT22;49;48.530;9.200;2022-08-01T12:37:00;31.90;20.30
418;DHT22;49;48.530;9.200;2022-08-01T12:39:41;32.20;20.20
418;DHT22;49;48.530;9.200;2022-08-01T12:42:09;32.50;19.40
418;DHT22;49;48.530;9.200;2022-08-01T12:44:40;32.50;19.40
418;DHT22;49;48.530;9.200;2022-08-01T12:50:35;31.90;20.20
418;DHT22;49;48.530;9.200;2022-08-01T12:53:06;31.80;20.50
418;DHT22;49;48.530;9.200;2022-08-01T12:56:12;31.60;20.90
418;DHT22;49;48.530;9.200;2022-08-01T12:58:45;31.40;21.30
418;DHT22;49;48.530;9.200;2022-08-01T13:01:14;31.00;22.20
418;DHT22;49;48.530;9.200;2022-08-01T13:03:57;31.50;22.50
418;DHT22;49;48.530;9.200;2022-08-01T13:06:28;31.40;22.00
418;DHT22;49;48.530;9.200;2022-08-01T13:09:04;31.20;21.80
418;DHT22;49;48.530;9.200;2022-08-01T13:11:31;31.50;21.30
418;DHT22;49;48.530;9.200;2022-08-01T13:13:59;31.80;20.40
418;DHT22;49;48.530;9.200;2022-08-01T13:16:26;30.80;21.20
418;DHT22;49;48.530;9.200;2022-08-01T13:18:56;30.80;21.40
418;DHT22;49;48.530;9.200;2022-08-01T13:21:27;30.80;21.80
418;DHT22;49;48.530;9.200;2022-08-01T13:24:12;30.90;21.50
418;DHT22;49;48.530;9.200;2022-08-01T13:26:56;31.40;20.60
418;DHT22;49;48.530;9.200;2022-08-01T13:29:33;31.60;20.60
418;DHT22;49;48.530;9.200;2022-08-01T13:32:01;31.80;21.10
418;DHT22;49;48.530;9.200;2022-08-01T13:34:40;31.70;19.80
418;DHT22;49;48.530;9.200;2022-08-01T13:37:07;31.30;20.60
418;DHT22;49;48.530;9.200;2022-08-01T13:39:34;31.40;20.60
418;DHT22;49;48.530;9.200;2022-08-01T13:42:08;31.30;20.30
418;DHT22;49;48.530;9.200;2022-08-01T13:44:35;31.00;20.90
418;DHT22;49;48.530;9.200;2022-08-01T13:47:02;30.90;20.90
418;DHT22;49;48.530;9.200;2022-08-01T13:49:29;31.10;20.60
418;DHT22;49;48.530;9.200;2022-08-01T13:51:57;30.40;22.10
418;DHT22;49;48.530;9.200;2022-08-01T13:54:24;29.90;22.70
418;DHT22;49;48.530;9.200;2022-08-01T13:56:52;29.70;23.10
418;DHT22;49;48.530;9.200;2022-08-01T13:59:19;30.10;22.30
418;DHT22;49;48.530;9.200;2022-08-01T14:01:47;30.80;21.10
418;DHT22;49;48.530;9.200;2022-08-01T14:04:14;31.00;20.90
418;DHT22;49;48.530;9.200;2022-08-01T14:06:41;31.30;20.60
418;DHT22;49;48.530;9.200;2022-08-01T14:09:09;31.10;21.00
418;DHT22;49;48.530;9.200;2022-08-01T14:11:36;30.20;22.50
418;DHT22;49;48.530;9.200;2022-08-01T14:14:04;30.60;22.10
418;DHT22;49;48.530;9.200;2022-08-01T14:16:31;30.90;21.60
418;DHT22;49;48.530;9.200;2022-08-01T14:18:57;30.50;21.40
418;DHT22;49;48.530;9.200;2022-08-01T14:21:24;30.60;22.30
418;DHT22;49;48.530;9.200;2022-08-01T14:23:51;30.80;21.20
418;DHT22;49;48.530;9.200;2022-08-01T14:26:19;31.00;21.10
418;DHT22;49;48.530;9.200;2022-08-01T14:28:46;30.10;22.20
418;DHT22;49;48.530;9.200;2022-08-01T14:31:13;29.20;23.70
418;DHT22;49;48.530;9.200;2022-08-01T14:33:40;29.40;23.90
418;DHT22;49;48.530;9.200;2022-08-01T14:36:07;29.50;23.90
418;DHT22;49;48.530;9.200;2022-08-01T14:38:35;29.20;24.30
418;DHT22;49;48.530;9.200;2022-08-01T14:41:02;29.30;23.80
418;DHT22;49;48.530;9.200;2022-08-01T14:43:31;29.00;24.10
418;DHT22;49;48.530;9.200;2022-08-01T14:45:58;29.50;23.90
418;DHT22;49;48.530;9.200;2022-08-01T14:48:25;30.60;21.90
418;DHT22;49;48.530;9.200;2022-08-01T14:50:54;30.60;21.60
418;DHT22;49;48.530;9.200;2022-08-01T14:53:21;30.60;21.80
418;DHT22;49;48.530;9.200;2022-08-01T14:55:48;30.20;22.50
418;DHT22;49;48.530;9.200;2022-08-01T14:58:15;30.20;22.50
418;DHT22;49;48.530;9.200;2022-08-01T15:00:43;30.40;22.80
418;DHT22;49;48.530;9.200;2022-08-01T15:03:10;30.50;22.30
418;DHT22;49;48.530;9.200;2022-08-01T15:05:38;31.00;21.90
418;DHT22;49;48.530;9.200;2022-08-01T15:08:06;31.50;22.60
418;DHT22;49;48.530;9.200;2022-08-01T15:10:33;31.70;24.10
418;DHT22;49;48.530;9.200;2022-08-01T15:13:00;31.60;22.50
418;DHT22;49;48.530;9.200;2022-08-01T15:15:27;31.20;24.10
418;DHT22;49;48.530;9.200;2022-08-01T15:17:56;31.20;26.40
418;DHT22;49;48.530;9.200;2022-08-01T15:20:24;31.10;28.70
418;DHT22;49;48.530;9.200;2022-08-01T15:22:52;31.10;30.70
418;DHT22;49;48.530;9.200;2022-08-01T15:25:19;30.80;29.60
418;DHT22;49;48.530;9.200;2022-08-01T15:27:48;30.30;30.30
418;DHT22;49;48.530;9.200;2022-08-01T15:30:16;29.80;30.60
418;DHT22;49;48.530;9.200;2022-08-01T15:32:44;29.90;30.10
418;DHT22;49;48.530;9.200;2022-08-01T15:35:12;30.00;30.10
418;DHT22;49;48.530;9.200;2022-08-01T15:37:39;29.90;30.10
418;DHT22;49;48.530;9.200;2022-08-01T15:40:08;30.00;31.70
418;DHT22;49;48.530;9.200;2022-08-01T15:42:36;29.70;31.40
418;DHT22;49;48.530;9.200;2022-08-01T15:45:04;29.60;32.40
418;DHT22;49;48.530;9.200;2022-08-01T15:47:32;29.60;30.60
418;DHT22;49;48.530;9.200;2022-08-01T15:49:59;29.60;32.60
418;DHT22;49;48.530;9.200;2022-08-01T15:52:28;29.00;33.50
418;DHT22;49;48.530;9.200;2022-08-01T15:54:55;29.10;34.10
418;DHT22;49;48.530;9.200;2022-08-01T15:57:22;29.50;34.10
418;DHT22;49;48.530;9.200;2022-08-01T15:59:49;29.90;33.30
418;DHT22;49;48.530;9.200;2022-08-01T16:02:16;29.90;32.90
418;DHT22;49;48.530;9.200;2022-08-01T16:04:43;29.80;33.30
418;DHT22;49;48.530;9.200;2022-08-01T16:07:10;30.20;31.10
418;DHT22;49;48.530;9.200;2022-08-01T16:09:38;30.50;30.50
418;DHT22;49;48.530;9.200;2022-08-01T16:12:09;30.60;30.60
418;DHT22;49;48.530;9.200;2022-08-01T16:14:35;30.90;30.00
418;DHT22;49;48.530;9.200;2022-08-01T16:17:02;31.20;29.50
418;DHT22;49;48.530;9.200;2022-08-01T16:19:29;31.30;28.90
418;DHT22;49;48.530;9.200;2022-08-01T16:21:56;30.70;29.30
418;DHT22;49;48.530;9.200;2022-08-01T16:24:23;30.20;30.30
418;DHT22;49;48.530;9.200;2022-08-01T16:26:55;30.00;31.10
418;DHT22;49;48.530;9.200;2022-08-01T16:29:22;30.20;30.60
418;DHT22;49;48.530;9.200;2022-08-01T16:31:50;30.30;30.80
418;DHT22;49;48.530;9.200;2022-08-01T16:34:17;30.50;31.10
418;DHT22;49;48.530;9.200;2022-08-01T16:36:44;29.90;31.70
418;DHT22;49;48.530;9.200;2022-08-01T16:39:11;29.60;33.10
418;DHT22;49;48.530;9.200;2022-08-01T16:41:38;29.60;33.40
418;DHT22;49;48.530;9.200;2022-08-01T16:44:06;30.00;33.00
418;DHT22;49;48.530;9.200;2022-08-01T16:46:33;29.80;34.30
418;DHT22;49;48.530;9.200;2022-08-01T16:49:00;29.90;34.10
418;DHT22;49;48.530;9.200;2022-08-01T16:51:27;29.60;34.30
418;DHT22;49;48.530;9.200;2022-08-01T16:53:54;29.90;33.30
418;DHT22;49;48.530;9.200;2022-08-01T16:56:21;29.90;31.70
418;DHT22;49;48.530;9.200;2022-08-01T16:58:48;30.00;31.20
418;DHT22;49;48.530;9.200;2022-08-01T17:01:17;30.10;30.20
418;DHT22;49;48.530;9.200;2022-08-01T17:03:45;30.00;30.10
418;DHT22;49;48.530;9.200;2022-08-01T17:06:12;29.60;30.00
418;DHT22;49;48.530;9.200;2022-08-01T17:08:39;29.80;31.00
418;DHT22;49;48.530;9.200;2022-08-01T17:11:06;29.70;32.60
418;DHT22;49;48.530;9.200;2022-08-01T17:13:33;29.60;33.50
418;DHT22;49;48.530;9.200;2022-08-01T17:16:00;29.70;34.10